KBLI/BLI METAR and TAF weather

Enter ICAO airport designator
Station Type Date Time Source
KBLI METAR 2021/07/30 06:53 UTC NOAA

KBLI 300653Z AUTO 20005KT 10SM CLR 18/16 A2998 RMK AO2 SLP158 T01780156


Station Type Date Time Source
KBLI Decoded METAR 2021/07/30 06:53 UTC NOAA

BELLINGHAM INTERNATIONAL AIRPORT, WA, United States (KBLI) 48-48N 122-32W 50M
Jul 30, 2021 - 02:53 AM EDT / 2021.07.30 0653 UTC
Wind: from the SSW (200 degrees) at 6 MPH (5 KT):0
Visibility: 10 mile(s):0
Sky conditions: clear
Temperature: 64.0 F (17.8 C)
Dew Point: 60.1 F (15.6 C)
Relative Humidity: 86%
Pressure (altimeter): 29.98 in. Hg (1015 hPa)
ob: KBLI 300653Z AUTO 20005KT 10SM CLR 18/16 A2998 RMK AO2 SLP158 T01780156
cycle: 7

Station Type Date Time Source
KBLI TAF 2021/07/30 06:28 UTC NOAA

TAF KBLI 300526Z 3006/3106 19004KT P6SM SKC
FM302100 26008KT P6SM FEW150
FM310400 17010KT P6SM SCT200

Example: see airport list